• Join FlightAware (Why Join?)
  • Login
  • US Flag GB Flag 
21:35 EDT


 

Airport Tracker/Info


-or-


 

Live Flight TrackerFlight Track Log ✈ AWE3997 ✈ 20-Apr-2013 ✈ KRIC - KCLT

Flight Track Log - Related Links

Times and Time Zones

All times are in EDT time to prevent confusion due to time zone crossing. See the AWE3997 flight status page for this flight to view local times or setup timezone preferences in your user account.

Time Position Orientation Groundspeed Altitude Reporting Facility
EDT Latitude Longitude Course Direction KTS MPH feet Rate Location/Type
16:26 37.5361 -77.3936 273° West 190 219 4,200  Level Washington Center
16:27 37.4266 -77.6294 254° West  Level FlightAware Approximate
16:27 37.5119 -77.4769 250° West 217 250 6,800  Level Washington Center
16:28 37.4009 -77.7407 254° West  Level FlightAware Approximate
16:28 37.4856 -77.5600 248° West 246 283 10,100  Level Washington Center
16:29 37.3755 -77.8520 254° West  Level FlightAware Approximate
16:29 37.4589 -77.6508 250° West 265 305 11,600  Level Washington Center
16:30 37.3507 -77.9635 254° West  Level FlightAware Approximate
16:30 37.4303 -77.7417 248° West 277 319 13,400  Level Washington Center
16:31 37.3992 -77.8453 249° West 289 333 15,400 1,740 Climbing Washington Center
16:32 37.3703 -77.9411 249° West 295 339 16,900 1,260 Climbing Washington Center
16:33 37.3475 -78.0397 254° West 295 339 18,000 1,380 Climbing Washington Center
16:34 37.3244 -78.1436 254° West 295 339 19,700 960 Climbing Washington Center
16:35 37.3011 -78.2472 254° West 305 351 20,000 120 Climbing Washington Center
16:36 37.2819 -78.3586 258° West 315 362 20,000  Level Washington Center
16:37 37.2794 -78.4683 268° West 320 368 20,000 720 Level Washington Center
16:38 37.2767 -78.5778 268° West 320 368 21,500 1,320 Climbing Washington Center
16:39 37.2742 -78.6794 268° West 320 368 22,700 1,200 Climbing Washington Center
16:40 37.2714 -78.7917 268° West 320 368 23,900 600 Climbing Washington Center
16:41 37.2661 -78.9061 267° West 330 380 24,000  Climbing Washington Center
16:42 37.2628 -79.0183 268° West 330 380 24,000  Level Washington Center
16:43 37.2575 -79.1328 267° West 330 380 24,000  Level Washington Center
16:44 37.2375 -79.2467 258° West 324 373 24,000  Level Washington Center
16:45 37.1644 -79.3111 215° Southwest 297 342 24,000  Level Washington Center
16:46 37.0917 -79.3725 214° Southwest 303 349 24,000  Level Washington Center
16:47 37.0231 -79.4292 213° Southwest 303 349 24,000  Level Washington Center
16:48 36.9544 -79.4828 212° Southwest 298 343 24,000  Level Washington Center
16:49 36.8903 -79.5367 214° Southwest 298 343 24,000  Level Washington Center
16:50 36.8192 -79.5981 215° Southwest 303 349 24,000  Level Washington Center
16:51 36.7464 -79.6564 213° Southwest 313 360 24,000  Level Washington Center
16:52 36.6733 -79.7172 214° Southwest 313 360 24,000  Level Washington Center
16:53 36.5939 -79.7803 213° Southwest 313 360 24,000  Level Washington Center
16:54 36.5486 -79.8136 211° Southwest 311 358 24,000  Level Atlanta Center
16:55 36.4756 -79.8742 214° Southwest 317 365 24,000 -480 Level Atlanta Center
16:56 36.4025 -79.9322 213° Southwest 317 365 23,100 -900 Descending Atlanta Center
16:57 36.3436 -79.9817 214° Southwest 306 352 22,200 -600 Descending Atlanta Center
16:58 36.2767 -80.0364 213° Southwest 301 346 22,000 -300 Descending Atlanta Center
16:59 36.2075 -80.0939 214° Southwest 301 346 21,600 -1,080 Descending Atlanta Center
17:00 36.1386 -80.1564 216° Southwest 301 346 19,900 -1,800 Descending Atlanta Center
17:01 36.0675 -80.2139 213° Southwest 296 341 18,100 -1,560 Descending Atlanta Center
17:02 36.0025 -80.2708 215° Southwest 296 341 16,800 -1,440 Descending Atlanta Center
17:03 35.9539 -80.3142 216° Southwest 274 315 15,600 -1,500 Descending Atlanta Center
17:04 35.8828 -80.3789 216° Southwest 274 315 13,900 -1,500 Descending Atlanta Center
17:05 35.8156 -80.4356 214° Southwest 284 327 12,400 -1,440 Descending Atlanta Center
17:06 35.7481 -80.4769 206° Southwest 278 320 11,000 -780 Descending Atlanta Center
17:07 35.6822 -80.5156 205° Southwest 276 318 10,900 -960 Descending Atlanta Center
17:08 35.6169 -80.5619 210° Southwest 268 308 9,100 -1,680 Descending Atlanta Center
17:09 35.5578 -80.6131 215° Southwest 237 273 7,600 -1,320 Descending Atlanta Center
17:10 35.4944 -80.6564 209° Southwest 258 297 6,500 -960 Descending Atlanta Center
17:11 35.4392 -80.7019 214° Southwest 263 303 5,700 -1,080 Descending Atlanta Center
17:12 35.3683 -80.7531 210° Southwest 248 285 4,200 -1,200 Descending FAA TRACON SMA TRACON (SMA)
17:12 35.3508 -80.7644 208° Southwest 246 283 4,000 -360 Descending FAA TRACON SMA TRACON (SMA)
17:13 35.3325 -80.7836 220° Southwest 216 249 4,000 -300 Level FAA TRACON SMA TRACON (SMA)
17:13 35.3194 -80.7992 224° Southwest 218 251 3,800 -600 Descending FAA TRACON SMA TRACON (SMA)